sensor_id;sensor_type;location;lat;lon;timestamp;pressure;altitude;pressure_sealevel;temperature
48003;BMP280;33768;48.578;11.574;2024-02-16T00:01:38;96427.25;;;6.55
48003;BMP280;33768;48.578;11.574;2024-02-16T00:04:42;96428.75;;;6.56
48003;BMP280;33768;48.578;11.574;2024-02-16T00:07:46;96428.97;;;6.63
48003;BMP280;33768;48.578;11.574;2024-02-16T00:10:50;96422.75;;;6.74
48003;BMP280;33768;48.578;11.574;2024-02-16T00:13:54;96418.03;;;6.80
48003;BMP280;33768;48.578;11.574;2024-02-16T00:16:59;96423.72;;;6.82
48003;BMP280;33768;48.578;11.574;2024-02-16T00:20:04;96415.31;;;6.90
48003;BMP280;33768;48.578;11.574;2024-02-16T00:23:11;96420.25;;;6.81
48003;BMP280;33768;48.578;11.574;2024-02-16T00:26:15;96413.88;;;6.79
48003;BMP280;33768;48.578;11.574;2024-02-16T00:29:19;96405.25;;;6.75
48003;BMP280;33768;48.578;11.574;2024-02-16T00:32:23;96402.28;;;6.78
48003;BMP280;33768;48.578;11.574;2024-02-16T00:35:32;96397.56;;;6.84
48003;BMP280;33768;48.578;11.574;2024-02-16T00:38:36;96397.81;;;6.86
48003;BMP280;33768;48.578;11.574;2024-02-16T00:41:41;96395.28;;;6.93
48003;BMP280;33768;48.578;11.574;2024-02-16T00:44:45;96392.06;;;6.95
48003;BMP280;33768;48.578;11.574;2024-02-16T00:47:49;96400.47;;;6.91
48003;BMP280;33768;48.578;11.574;2024-02-16T00:50:54;96396.59;;;6.82
48003;BMP280;33768;48.578;11.574;2024-02-16T00:53:58;96399.78;;;6.80
48003;BMP280;33768;48.578;11.574;2024-02-16T00:57:02;96400.28;;;6.84
48003;BMP280;33768;48.578;11.574;2024-02-16T01:00:07;96403.72;;;6.85
48003;BMP280;33768;48.578;11.574;2024-02-16T01:03:13;96407.72;;;6.78
48003;BMP280;33768;48.578;11.574;2024-02-16T01:06:17;96403.06;;;6.68
48003;BMP280;33768;48.578;11.574;2024-02-16T01:09:21;96408.03;;;6.58
48003;BMP280;33768;48.578;11.574;2024-02-16T01:12:25;96409.28;;;6.52
48003;BMP280;33768;48.578;11.574;2024-02-16T01:15:29;96396.22;;;6.51
48003;BMP280;33768;48.578;11.574;2024-02-16T01:18:34;96394.47;;;6.58
48003;BMP280;33768;48.578;11.574;2024-02-16T01:21:40;96373.78;;;6.55
48003;BMP280;33768;48.578;11.574;2024-02-16T01:24:44;96383.91;;;6.44
48003;BMP280;33768;48.578;11.574;2024-02-16T01:27:51;96384.19;;;6.41
48003;BMP280;33768;48.578;11.574;2024-02-16T01:30:56;96393.53;;;6.51
48003;BMP280;33768;48.578;11.574;2024-02-16T01:34:02;96396.19;;;6.61
48003;BMP280;33768;48.578;11.574;2024-02-16T01:37:06;96403.00;;;6.79
48003;BMP280;33768;48.578;11.574;2024-02-16T01:40:10;96394.13;;;6.84
48003;BMP280;33768;48.578;11.574;2024-02-16T01:43:21;96399.31;;;6.76
48003;BMP280;33768;48.578;11.574;2024-02-16T01:46:26;96399.09;;;6.74
48003;BMP280;33768;48.578;11.574;2024-02-16T01:49:30;96396.13;;;6.72
48003;BMP280;33768;48.578;11.574;2024-02-16T01:52:37;96394.13;;;6.78
48003;BMP280;33768;48.578;11.574;2024-02-16T01:55:41;96395.59;;;6.79
48003;BMP280;33768;48.578;11.574;2024-02-16T01:58:46;96387.72;;;6.81
48003;BMP280;33768;48.578;11.574;2024-02-16T02:01:51;96386.94;;;6.86
48003;BMP280;33768;48.578;11.574;2024-02-16T02:04:55;96374.59;;;6.85
48003;BMP280;33768;48.578;11.574;2024-02-16T02:08:09;96383.28;;;6.78
48003;BMP280;33768;48.578;11.574;2024-02-16T02:11:13;96380.09;;;6.74
48003;BMP280;33768;48.578;11.574;2024-02-16T02:14:17;96383.56;;;6.69
48003;BMP280;33768;48.578;11.574;2024-02-16T02:17:21;96389.75;;;6.64
48003;BMP280;33768;48.578;11.574;2024-02-16T02:20:25;96379.91;;;6.61
48003;BMP280;33768;48.578;11.574;2024-02-16T02:23:30;96389.06;;;6.53
48003;BMP280;33768;48.578;11.574;2024-02-16T02:26:34;96384.88;;;6.52
48003;BMP280;33768;48.578;11.574;2024-02-16T02:29:39;96382.69;;;6.51
48003;BMP280;33768;48.578;11.574;2024-02-16T02:32:43;96372.81;;;6.42
48003;BMP280;33768;48.578;11.574;2024-02-16T02:35:47;96371.88;;;6.34
48003;BMP280;33768;48.578;11.574;2024-02-16T02:38:51;96370.41;;;6.33
48003;BMP280;33768;48.578;11.574;2024-02-16T02:41:55;96361.75;;;6.35
48003;BMP280;33768;48.578;11.574;2024-02-16T02:44:59;96357.78;;;6.47
48003;BMP280;33768;48.578;11.574;2024-02-16T02:48:03;96361.47;;;6.49
48003;BMP280;33768;48.578;11.574;2024-02-16T02:51:07;96370.59;;;6.46
48003;BMP280;33768;48.578;11.574;2024-02-16T02:54:12;96361.00;;;6.40
48003;BMP280;33768;48.578;11.574;2024-02-16T02:57:16;96357.06;;;6.41
48003;BMP280;33768;48.578;11.574;2024-02-16T03:00:20;96365.19;;;6.46
48003;BMP280;33768;48.578;11.574;2024-02-16T03:03:24;96360.25;;;6.45
48003;BMP280;33768;48.578;11.574;2024-02-16T03:06:28;96355.03;;;6.52
48003;BMP280;33768;48.578;11.574;2024-02-16T03:09:33;96349.66;;;6.47
48003;BMP280;33768;48.578;11.574;2024-02-16T03:12:37;96362.50;;;6.41
48003;BMP280;33768;48.578;11.574;2024-02-16T03:15:41;96370.16;;;6.31
48003;BMP280;33768;48.578;11.574;2024-02-16T03:18:45;96370.94;;;6.21
48003;BMP280;33768;48.578;11.574;2024-02-16T03:21:49;96378.81;;;6.19
48003;BMP280;33768;48.578;11.574;2024-02-16T03:24:56;96380.31;;;6.20
48003;BMP280;33768;48.578;11.574;2024-02-16T03:27:59;96383.25;;;6.22
48003;BMP280;33768;48.578;11.574;2024-02-16T03:31:04;96381.03;;;6.26
48003;BMP280;33768;48.578;11.574;2024-02-16T03:34:09;96384.47;;;6.26
48003;BMP280;33768;48.578;11.574;2024-02-16T03:37:13;96381.03;;;6.26
48003;BMP280;33768;48.578;11.574;2024-02-16T03:40:17;96390.63;;;6.27
48003;BMP280;33768;48.578;11.574;2024-02-16T03:43:22;96382.28;;;6.25
48003;BMP280;33768;48.578;11.574;2024-02-16T03:46:26;96388.91;;;6.24
48003;BMP280;33768;48.578;11.574;2024-02-16T03:49:31;96386.47;;;6.21
48003;BMP280;33768;48.578;11.574;2024-02-16T03:52:35;96388.22;;;6.07
48003;BMP280;33768;48.578;11.574;2024-02-16T03:55:39;96398.81;;;6.05
48003;BMP280;33768;48.578;11.574;2024-02-16T03:58:43;96401.53;;;6.05
48003;BMP280;33768;48.578;11.574;2024-02-16T04:01:48;96403.00;;;6.06
48003;BMP280;33768;48.578;11.574;2024-02-16T04:04:52;96409.16;;;6.07
48003;BMP280;33768;48.578;11.574;2024-02-16T04:07:57;96401.28;;;5.98
48003;BMP280;33768;48.578;11.574;2024-02-16T04:11:05;96403.75;;;5.96
48003;BMP280;33768;48.578;11.574;2024-02-16T04:14:10;96397.84;;;5.92
48003;BMP280;33768;48.578;11.574;2024-02-16T04:17:15;96404.03;;;5.93
48003;BMP280;33768;48.578;11.574;2024-02-16T04:20:19;96402.03;;;5.98
48003;BMP280;33768;48.578;11.574;2024-02-16T04:23:24;96399.56;;;6.00
48003;BMP280;33768;48.578;11.574;2024-02-16T04:26:28;96403.50;;;5.99
48003;BMP280;33768;48.578;11.574;2024-02-16T04:29:32;96390.19;;;6.01
48003;BMP280;33768;48.578;11.574;2024-02-16T04:32:36;96417.28;;;6.01
48003;BMP280;33768;48.578;11.574;2024-02-16T04:35:40;96425.41;;;6.01
48003;BMP280;33768;48.578;11.574;2024-02-16T04:38:45;96429.63;;;6.02
48003;BMP280;33768;48.578;11.574;2024-02-16T04:41:49;96421.25;;;6.00
48003;BMP280;33768;48.578;11.574;2024-02-16T04:44:53;96426.16;;;5.96
48003;BMP280;33768;48.578;11.574;2024-02-16T04:48:02;96425.19;;;5.94
48003;BMP280;33768;48.578;11.574;2024-02-16T04:51:06;96416.59;;;5.90
48003;BMP280;33768;48.578;11.574;2024-02-16T04:54:10;96418.31;;;5.82
48003;BMP280;33768;48.578;11.574;2024-02-16T04:57:15;96411.41;;;5.76
48003;BMP280;33768;48.578;11.574;2024-02-16T05:00:19;96416.09;;;5.81
48003;BMP280;33768;48.578;11.574;2024-02-16T05:03:24;96405.75;;;5.85
48003;BMP280;33768;48.578;11.574;2024-02-16T05:06:28;96410.41;;;5.90
48003;BMP280;33768;48.578;11.574;2024-02-16T05:09:33;96417.06;;;5.94
48003;BMP280;33768;48.578;11.574;2024-02-16T05:12:37;96411.63;;;5.99
48003;BMP280;33768;48.578;11.574;2024-02-16T05:15:41;96403.25;;;6.03
48003;BMP280;33768;48.578;11.574;2024-02-16T05:18:46;96401.28;;;6.03
48003;BMP280;33768;48.578;11.574;2024-02-16T05:21:51;96407.19;;;6.07
48003;BMP280;33768;48.578;11.574;2024-02-16T05:24:55;96414.34;;;6.10
48003;BMP280;33768;48.578;11.574;2024-02-16T05:28:00;96409.41;;;6.09
48003;BMP280;33768;48.578;11.574;2024-02-16T05:31:15;96396.84;;;6.06
48003;BMP280;33768;48.578;11.574;2024-02-16T05:34:21;96415.81;;;6.06
48003;BMP280;33768;48.578;11.574;2024-02-16T05:37:25;96412.63;;;6.07
48003;BMP280;33768;48.578;11.574;2024-02-16T05:40:31;96394.84;;;6.12
48003;BMP280;33768;48.578;11.574;2024-02-16T05:43:48;96399.78;;;6.13
48003;BMP280;33768;48.578;11.574;2024-02-16T05:46:52;96398.56;;;6.09
48003;BMP280;33768;48.578;11.574;2024-02-16T05:49:57;96398.09;;;6.05
48003;BMP280;33768;48.578;11.574;2024-02-16T05:53:03;96412.38;;;6.00
48003;BMP280;33768;48.578;11.574;2024-02-16T05:56:07;96421.25;;;5.95
48003;BMP280;33768;48.578;11.574;2024-02-16T05:59:11;96427.16;;;5.88
48003;BMP280;33768;48.578;11.574;2024-02-16T06:02:16;96424.94;;;5.81
48003;BMP280;33768;48.578;11.574;2024-02-16T06:05:21;96429.16;;;5.82
48003;BMP280;33768;48.578;11.574;2024-02-16T06:08:25;96427.66;;;5.87
48003;BMP280;33768;48.578;11.574;2024-02-16T06:11:30;96433.31;;;5.89
48003;BMP280;33768;48.578;11.574;2024-02-16T06:14:34;96446.63;;;5.87
48003;BMP280;33768;48.578;11.574;2024-02-16T06:17:39;96445.41;;;5.82
48003;BMP280;33768;48.578;11.574;2024-02-16T06:20:44;96440.47;;;5.81
48003;BMP280;33768;48.578;11.574;2024-02-16T06:23:49;96441.72;;;5.80
48003;BMP280;33768;48.578;11.574;2024-02-16T06:26:53;96445.38;;;5.77
48003;BMP280;33768;48.578;11.574;2024-02-16T06:29:58;96460.66;;;5.74
48003;BMP280;33768;48.578;11.574;2024-02-16T06:33:02;96460.63;;;5.69
48003;BMP280;33768;48.578;11.574;2024-02-16T06:36:07;96474.66;;;5.67
48003;BMP280;33768;48.578;11.574;2024-02-16T06:39:11;96471.97;;;5.67
48003;BMP280;33768;48.578;11.574;2024-02-16T06:42:20;96485.78;;;5.75
48003;BMP280;33768;48.578;11.574;2024-02-16T06:45:24;96482.81;;;5.84
48003;BMP280;33768;48.578;11.574;2024-02-16T06:48:29;96488.50;;;5.91
48003;BMP280;33768;48.578;11.574;2024-02-16T06:51:34;96486.75;;;5.93
48003;BMP280;33768;48.578;11.574;2024-02-16T06:54:38;96493.91;;;5.86
48003;BMP280;33768;48.578;11.574;2024-02-16T06:57:42;96498.59;;;5.85
48003;BMP280;33768;48.578;11.574;2024-02-16T07:00:47;96501.53;;;5.82
48003;BMP280;33768;48.578;11.574;2024-02-16T07:03:51;96495.88;;;5.80
48003;BMP280;33768;48.578;11.574;2024-02-16T07:06:55;96502.03;;;5.86
48003;BMP280;33768;48.578;11.574;2024-02-16T07:09:59;96504.75;;;5.91
48003;BMP280;33768;48.578;11.574;2024-02-16T07:13:03;96505.50;;;6.02
48003;BMP280;33768;48.578;11.574;2024-02-16T07:16:07;96516.78;;;6.17
48003;BMP280;33768;48.578;11.574;2024-02-16T07:19:12;96515.09;;;6.25
48003;BMP280;33768;48.578;11.574;2024-02-16T07:22:16;96517.28;;;6.43
48003;BMP280;33768;48.578;11.574;2024-02-16T07:25:20;96525.34;;;6.70
48003;BMP280;33768;48.578;11.574;2024-02-16T07:28:24;96522.63;;;6.75
48003;BMP280;33768;48.578;11.574;2024-02-16T07:31:33;96515.44;;;6.88
48003;BMP280;33768;48.578;11.574;2024-02-16T07:34:38;96508.94;;;7.13
48003;BMP280;33768;48.578;11.574;2024-02-16T07:37:42;96516.97;;;7.75
48003;BMP280;33768;48.578;11.574;2024-02-16T07:40:47;96526.50;;;8.26
48003;BMP280;33768;48.578;11.574;2024-02-16T07:43:51;96520.59;;;8.51
48003;BMP280;33768;48.578;11.574;2024-02-16T07:46:55;96519.41;;;8.71
48003;BMP280;33768;48.578;11.574;2024-02-16T07:50:00;96524.06;;;8.75
48003;BMP280;33768;48.578;11.574;2024-02-16T07:53:04;96527.78;;;8.96
48003;BMP280;33768;48.578;11.574;2024-02-16T07:56:08;96518.84;;;9.19
48003;BMP280;33768;48.578;11.574;2024-02-16T07:59:12;96524.38;;;9.32
48003;BMP280;33768;48.578;11.574;2024-02-16T08:02:16;96525.56;;;9.36
48003;BMP280;33768;48.578;11.574;2024-02-16T08:05:21;96517.56;;;9.44
48003;BMP280;33768;48.578;11.574;2024-02-16T08:08:26;96521.88;;;9.52
48003;BMP280;33768;48.578;11.574;2024-02-16T08:11:30;96521.63;;;9.56
48003;BMP280;33768;48.578;11.574;2024-02-16T08:14:34;96514.19;;;9.56
48003;BMP280;33768;48.578;11.574;2024-02-16T08:17:39;96521.84;;;9.76
48003;BMP280;33768;48.578;11.574;2024-02-16T08:20:43;96530.66;;;10.00
48003;BMP280;33768;48.578;11.574;2024-02-16T08:23:47;96522.97;;;10.17
48003;BMP280;33768;48.578;11.574;2024-02-16T08:26:53;96518.00;;;10.33
48003;BMP280;33768;48.578;11.574;2024-02-16T08:29:57;96526.22;;;10.46
48003;BMP280;33768;48.578;11.574;2024-02-16T08:33:01;96521.75;;;10.74
48003;BMP280;33768;48.578;11.574;2024-02-16T08:36:07;96516.81;;;11.11
48003;BMP280;33768;48.578;11.574;2024-02-16T08:39:12;96517.31;;;11.48
48003;BMP280;33768;48.578;11.574;2024-02-16T08:42:17;96516.09;;;11.82
48003;BMP280;33768;48.578;11.574;2024-02-16T08:45:21;96514.78;;;11.96
48003;BMP280;33768;48.578;11.574;2024-02-16T08:48:25;96516.25;;;11.97
48003;BMP280;33768;48.578;11.574;2024-02-16T08:51:29;96502.97;;;12.01
48003;BMP280;33768;48.578;11.574;2024-02-16T08:54:35;96500.84;;;12.47
48003;BMP280;33768;48.578;11.574;2024-02-16T08:57:39;96511.44;;;13.18
48003;BMP280;33768;48.578;11.574;2024-02-16T09:00:43;96511.53;;;13.90
48003;BMP280;33768;48.578;11.574;2024-02-16T09:03:47;96508.22;;;14.34
48003;BMP280;33768;48.578;11.574;2024-02-16T09:06:51;96511.69;;;14.57
48003;BMP280;33768;48.578;11.574;2024-02-16T09:09:56;96501.97;;;14.85
48003;BMP280;33768;48.578;11.574;2024-02-16T09:13:00;96504.19;;;14.87
48003;BMP280;33768;48.578;11.574;2024-02-16T09:16:04;96516.97;;;14.99
48003;BMP280;33768;48.578;11.574;2024-02-16T09:19:08;96518.25;;;15.05
48003;BMP280;33768;48.578;11.574;2024-02-16T09:22:13;96517.69;;;15.29
48003;BMP280;33768;48.578;11.574;2024-02-16T09:25:18;96510.22;;;15.22
48003;BMP280;33768;48.578;11.574;2024-02-16T09:28:22;96513.41;;;15.58
48003;BMP280;33768;48.578;11.574;2024-02-16T09:31:26;96506.25;;;15.94
48003;BMP280;33768;48.578;11.574;2024-02-16T09:34:30;96508.47;;;15.95
48003;BMP280;33768;48.578;11.574;2024-02-16T09:37:35;96509.13;;;15.71
48003;BMP280;33768;48.578;11.574;2024-02-16T09:40:40;96511.25;;;15.41
48003;BMP280;33768;48.578;11.574;2024-02-16T09:43:44;96514.38;;;15.31
48003;BMP280;33768;48.578;11.574;2024-02-16T09:46:48;96505.25;;;15.21
48003;BMP280;33768;48.578;11.574;2024-02-16T09:49:52;96513.50;;;14.91
48003;BMP280;33768;48.578;11.574;2024-02-16T09:52:56;96516.81;;;14.82
48003;BMP280;33768;48.578;11.574;2024-02-16T09:56:01;96522.84;;;14.73
48003;BMP280;33768;48.578;11.574;2024-02-16T09:59:05;96525.25;;;14.70
48003;BMP280;33768;48.578;11.574;2024-02-16T10:02:11;96531.47;;;14.48
48003;BMP280;33768;48.578;11.574;2024-02-16T10:05:17;96534.75;;;14.32
48003;BMP280;33768;48.578;11.574;2024-02-16T10:08:21;96526.69;;;14.26
48003;BMP280;33768;48.578;11.574;2024-02-16T10:11:26;96527.03;;;14.30
48003;BMP280;33768;48.578;11.574;2024-02-16T10:14:34;96540.59;;;14.43
48003;BMP280;33768;48.578;11.574;2024-02-16T10:17:38;96534.03;;;14.53
48003;BMP280;33768;48.578;11.574;2024-02-16T10:20:44;96535.13;;;14.58
48003;BMP280;33768;48.578;11.574;2024-02-16T10:23:59;96531.09;;;14.59
48003;BMP280;33768;48.578;11.574;2024-02-16T10:27:17;96534.22;;;14.77
48003;BMP280;33768;48.578;11.574;2024-02-16T10:30:22;96536.59;;;15.03
48003;BMP280;33768;48.578;11.574;2024-02-16T10:33:28;96537.50;;;15.20
48003;BMP280;33768;48.578;11.574;2024-02-16T10:36:37;96536.59;;;15.18
48003;BMP280;33768;48.578;11.574;2024-02-16T10:39:41;96530.53;;;15.27
48003;BMP280;33768;48.578;11.574;2024-02-16T10:42:46;96536.56;;;15.33
48003;BMP280;33768;48.578;11.574;2024-02-16T10:45:51;96540.22;;;15.42
48003;BMP280;33768;48.578;11.574;2024-02-16T10:48:57;96544.75;;;15.55
48003;BMP280;33768;48.578;11.574;2024-02-16T10:52:04;96529.44;;;15.83
48003;BMP280;33768;48.578;11.574;2024-02-16T10:55:10;96530.34;;;15.86
48003;BMP280;33768;48.578;11.574;2024-02-16T10:58:17;96527.78;;;15.88
48003;BMP280;33768;48.578;11.574;2024-02-16T11:01:23;96530.63;;;15.97
48003;BMP280;33768;48.578;11.574;2024-02-16T11:04:36;96521.63;;;16.04
48003;BMP280;33768;48.578;11.574;2024-02-16T11:07:42;96506.75;;;16.38
48003;BMP280;33768;48.578;11.574;2024-02-16T11:10:59;96518.91;;;16.59
48003;BMP280;33768;48.578;11.574;2024-02-16T11:14:14;96508.66;;;16.77
48003;BMP280;33768;48.578;11.574;2024-02-16T11:17:23;96511.06;;;16.97
48003;BMP280;33768;48.578;11.574;2024-02-16T11:20:28;96495.97;;;17.22
48003;BMP280;33768;48.578;11.574;2024-02-16T11:23:35;96506.84;;;17.37
48003;BMP280;33768;48.578;11.574;2024-02-16T11:26:44;96500.34;;;17.42
48003;BMP280;33768;48.578;11.574;2024-02-16T11:29:49;96501.84;;;17.69
48003;BMP280;33768;48.578;11.574;2024-02-16T11:32:53;96490.00;;;17.76
48003;BMP280;33768;48.578;11.574;2024-02-16T11:36:02;96488.22;;;17.87
48003;BMP280;33768;48.578;11.574;2024-02-16T11:39:13;96490.81;;;17.85
48003;BMP280;33768;48.578;11.574;2024-02-16T11:42:19;96492.13;;;17.68
48003;BMP280;33768;48.578;11.574;2024-02-16T11:45:24;96483.53;;;17.30
48003;BMP280;33768;48.578;11.574;2024-02-16T11:48:28;96487.19;;;17.33
48003;BMP280;33768;48.578;11.574;2024-02-16T11:51:32;96489.72;;;17.38
48003;BMP280;33768;48.578;11.574;2024-02-16T11:54:36;96491.31;;;17.58
48003;BMP280;33768;48.578;11.574;2024-02-16T11:57:43;96496.03;;;17.65
48003;BMP280;33768;48.578;11.574;2024-02-16T12:00:52;96493.34;;;17.74
48003;BMP280;33768;48.578;11.574;2024-02-16T12:03:56;96491.22;;;17.82
48003;BMP280;33768;48.578;11.574;2024-02-16T12:07:02;96492.13;;;17.68
48003;BMP280;33768;48.578;11.574;2024-02-16T12:10:06;96501.25;;;17.44
48003;BMP280;33768;48.578;11.574;2024-02-16T12:13:11;96484.09;;;17.46
48003;BMP280;33768;48.578;11.574;2024-02-16T12:16:18;96485.41;;;17.61
48003;BMP280;33768;48.578;11.574;2024-02-16T12:19:22;96475.06;;;17.79
48003;BMP280;33768;48.578;11.574;2024-02-16T12:22:28;96480.56;;;17.79
48003;BMP280;33768;48.578;11.574;2024-02-16T12:25:32;96479.19;;;17.87
48003;BMP280;33768;48.578;11.574;2024-02-16T12:28:36;96482.53;;;17.69
48003;BMP280;33768;48.578;11.574;2024-02-16T12:31:41;96474.38;;;17.45
48003;BMP280;33768;48.578;11.574;2024-02-16T12:34:47;96483.22;;;17.60
48003;BMP280;33768;48.578;11.574;2024-02-16T12:37:52;96473.31;;;17.57
48003;BMP280;33768;48.578;11.574;2024-02-16T12:40:56;96479.19;;;17.44
48003;BMP280;33768;48.578;11.574;2024-02-16T12:44:01;96479.31;;;17.46
48003;BMP280;33768;48.578;11.574;2024-02-16T12:47:05;96481.19;;;17.44
48003;BMP280;33768;48.578;11.574;2024-02-16T12:50:09;96478.38;;;17.34
48003;BMP280;33768;48.578;11.574;2024-02-16T12:53:14;96481.09;;;17.18
48003;BMP280;33768;48.578;11.574;2024-02-16T12:56:18;96480.97;;;17.32
48003;BMP280;33768;48.578;11.574;2024-02-16T12:59:24;96479.44;;;17.39
48003;BMP280;33768;48.578;11.574;2024-02-16T13:02:28;96486.47;;;17.32
48003;BMP280;33768;48.578;11.574;2024-02-16T13:05:33;96481.03;;;17.25
48003;BMP280;33768;48.578;11.574;2024-02-16T13:08:37;96479.88;;;17.28
48003;BMP280;33768;48.578;11.574;2024-02-16T13:11:42;96486.13;;;17.28
48003;BMP280;33768;48.578;11.574;2024-02-16T13:14:46;96478.53;;;17.20
48003;BMP280;33768;48.578;11.574;2024-02-16T13:17:50;96485.25;;;17.43
48003;BMP280;33768;48.578;11.574;2024-02-16T13:20:54;96478.78;;;17.90
48003;BMP280;33768;48.578;11.574;2024-02-16T13:23:59;96475.03;;;17.95
48003;BMP280;33768;48.578;11.574;2024-02-16T13:27:03;96483.31;;;18.12
48003;BMP280;33768;48.578;11.574;2024-02-16T13:30:09;96485.00;;;18.34
48003;BMP280;33768;48.578;11.574;2024-02-16T13:33:13;96486.22;;;18.40
48003;BMP280;33768;48.578;11.574;2024-02-16T13:36:17;96490.84;;;18.73
48003;BMP280;33768;48.578;11.574;2024-02-16T13:39:22;96487.63;;;19.12
48003;BMP280;33768;48.578;11.574;2024-02-16T13:42:26;96482.66;;;19.20
48003;BMP280;33768;48.578;11.574;2024-02-16T13:45:48;96477.88;;;19.30
48003;BMP280;33768;48.578;11.574;2024-02-16T13:48:54;96484.75;;;19.38
48003;BMP280;33768;48.578;11.574;2024-02-16T13:51:58;96487.06;;;19.23
48003;BMP280;33768;48.578;11.574;2024-02-16T13:55:04;96498.69;;;19.12
48003;BMP280;33768;48.578;11.574;2024-02-16T13:58:11;96494.91;;;18.72
48003;BMP280;33768;48.578;11.574;2024-02-16T14:01:15;96513.41;;;18.44
48003;BMP280;33768;48.578;11.574;2024-02-16T14:04:19;96503.53;;;18.15
48003;BMP280;33768;48.578;11.574;2024-02-16T14:07:25;96509.47;;;17.94
48003;BMP280;33768;48.578;11.574;2024-02-16T14:10:29;96516.97;;;17.85
48003;BMP280;33768;48.578;11.574;2024-02-16T14:13:34;96517.31;;;17.55
48003;BMP280;33768;48.578;11.574;2024-02-16T14:16:38;96511.38;;;17.25
48003;BMP280;33768;48.578;11.574;2024-02-16T14:19:44;96508.56;;;17.08
48003;BMP280;33768;48.578;11.574;2024-02-16T14:22:48;96508.44;;;16.82
48003;BMP280;33768;48.578;11.574;2024-02-16T14:25:52;96508.78;;;16.62
48003;BMP280;33768;48.578;11.574;2024-02-16T14:28:57;96505.47;;;16.63
48003;BMP280;33768;48.578;11.574;2024-02-16T14:32:01;96506.53;;;16.68
48003;BMP280;33768;48.578;11.574;2024-02-16T14:35:05;96510.75;;;16.69
48003;BMP280;33768;48.578;11.574;2024-02-16T14:38:11;96515.97;;;16.58
48003;BMP280;33768;48.578;11.574;2024-02-16T14:41:17;96513.50;;;16.45
48003;BMP280;33768;48.578;11.574;2024-02-16T14:44:21;96522.13;;;16.49
48003;BMP280;33768;48.578;11.574;2024-02-16T14:47:25;96522.38;;;16.36
48003;BMP280;33768;48.578;11.574;2024-02-16T14:50:29;96530.91;;;16.23
48003;BMP280;33768;48.578;11.574;2024-02-16T14:53:33;96527.09;;;16.19
48003;BMP280;33768;48.578;11.574;2024-02-16T14:56:37;96528.38;;;16.10
48003;BMP280;33768;48.578;11.574;2024-02-16T14:59:41;96535.13;;;16.24
48003;BMP280;33768;48.578;11.574;2024-02-16T15:02:46;96532.69;;;16.35
48003;BMP280;33768;48.578;11.574;2024-02-16T15:05:51;96534.13;;;16.36
48003;BMP280;33768;48.578;11.574;2024-02-16T15:08:55;96531.66;;;16.48
48003;BMP280;33768;48.578;11.574;2024-02-16T15:11:59;96536.63;;;16.49
48003;BMP280;33768;48.578;11.574;2024-02-16T15:15:04;96530.94;;;16.47
48003;BMP280;33768;48.578;11.574;2024-02-16T15:18:08;96544.66;;;16.30
48003;BMP280;33768;48.578;11.574;2024-02-16T15:21:12;96541.06;;;16.13
48003;BMP280;33768;48.578;11.574;2024-02-16T15:24:16;96547.19;;;15.90
48003;BMP280;33768;48.578;11.574;2024-02-16T15:27:20;96550.44;;;15.57
48003;BMP280;33768;48.578;11.574;2024-02-16T15:30:24;96546.84;;;15.32
48003;BMP280;33768;48.578;11.574;2024-02-16T15:33:32;96554.19;;;15.15
48003;BMP280;33768;48.578;11.574;2024-02-16T15:36:37;96553.47;;;14.92
48003;BMP280;33768;48.578;11.574;2024-02-16T15:39:45;96557.47;;;14.84
48003;BMP280;33768;48.578;11.574;2024-02-16T15:43:02;96569.94;;;14.70
48003;BMP280;33768;48.578;11.574;2024-02-16T15:46:08;96565.16;;;14.56
48003;BMP280;33768;48.578;11.574;2024-02-16T15:49:12;96575.56;;;14.35
48003;BMP280;33768;48.578;11.574;2024-02-16T15:52:17;96585.41;;;14.23
48003;BMP280;33768;48.578;11.574;2024-02-16T15:55:21;96585.56;;;14.10
48003;BMP280;33768;48.578;11.574;2024-02-16T15:58:25;96595.97;;;14.05
48003;BMP280;33768;48.578;11.574;2024-02-16T16:01:29;96589.66;;;13.89
48003;BMP280;33768;48.578;11.574;2024-02-16T16:04:36;96591.97;;;13.78
48003;BMP280;33768;48.578;11.574;2024-02-16T16:07:40;96601.09;;;13.73
48003;BMP280;33768;48.578;11.574;2024-02-16T16:10:44;96604.72;;;13.68
48003;BMP280;33768;48.578;11.574;2024-02-16T16:13:49;96608.19;;;13.61
48003;BMP280;33768;48.578;11.574;2024-02-16T16:16:53;96601.72;;;13.51
48003;BMP280;33768;48.578;11.574;2024-02-16T16:19:57;96614.81;;;13.45
48003;BMP280;33768;48.578;11.574;2024-02-16T16:23:01;96612.59;;;13.37
48003;BMP280;33768;48.578;11.574;2024-02-16T16:26:06;96615.06;;;13.27
48003;BMP280;33768;48.578;11.574;2024-02-16T16:29:10;96616.09;;;13.17
48003;BMP280;33768;48.578;11.574;2024-02-16T16:32:15;96622.88;;;13.16
48003;BMP280;33768;48.578;11.574;2024-02-16T16:35:19;96625.53;;;13.09
48003;BMP280;33768;48.578;11.574;2024-02-16T16:38:23;96625.84;;;12.98
48003;BMP280;33768;48.578;11.574;2024-02-16T16:41:27;96634.91;;;12.93
48003;BMP280;33768;48.578;11.574;2024-02-16T16:44:32;96646.84;;;12.82
48003;BMP280;33768;48.578;11.574;2024-02-16T16:47:35;96639.44;;;12.70
48003;BMP280;33768;48.578;11.574;2024-02-16T16:50:40;96644.06;;;12.62
48003;BMP280;33768;48.578;11.574;2024-02-16T16:53:44;96657.91;;;12.57
48003;BMP280;33768;48.578;11.574;2024-02-16T16:56:48;96657.50;;;12.53
48003;BMP280;33768;48.578;11.574;2024-02-16T16:59:52;96667.09;;;12.47
48003;BMP280;33768;48.578;11.574;2024-02-16T17:02:57;96670.47;;;12.40
48003;BMP280;33768;48.578;11.574;2024-02-16T17:06:03;96670.44;;;12.32
48003;BMP280;33768;48.578;11.574;2024-02-16T17:09:08;96672.00;;;12.28
48003;BMP280;33768;48.578;11.574;2024-02-16T17:12:13;96662.22;;;12.19
48003;BMP280;33768;48.578;11.574;2024-02-16T17:15:18;96663.81;;;12.15
48003;BMP280;33768;48.578;11.574;2024-02-16T17:18:22;96675.53;;;12.03
48003;BMP280;33768;48.578;11.574;2024-02-16T17:21:26;96689.94;;;11.90
48003;BMP280;33768;48.578;11.574;2024-02-16T17:24:31;96686.91;;;11.81
48003;BMP280;33768;48.578;11.574;2024-02-16T17:27:35;96685.56;;;11.75
48003;BMP280;33768;48.578;11.574;2024-02-16T17:30:39;96700.34;;;11.66
48003;BMP280;33768;48.578;11.574;2024-02-16T17:33:46;96703.53;;;11.57
48003;BMP280;33768;48.578;11.574;2024-02-16T17:36:51;96710.56;;;11.53